createdAt,value
2018-02-03T00:00:09.854Z,7.90
2018-02-03T00:02:37.359Z,7.90
2018-02-03T00:05:04.888Z,7.90
2018-02-03T00:07:32.403Z,7.90
2018-02-03T00:10:00.707Z,8.00
2018-02-03T00:12:28.215Z,8.00
2018-02-03T00:14:55.739Z,8.00
2018-02-03T00:17:23.255Z,7.90
2018-02-03T00:19:51.542Z,7.90
2018-02-03T00:22:19.059Z,7.90
2018-02-03T00:24:46.588Z,8.00
2018-02-03T00:27:14.122Z,8.00
2018-02-03T00:29:41.656Z,8.00
2018-02-03T00:32:09.179Z,8.10
2018-02-03T00:34:36.686Z,8.10
2018-02-03T00:37:04.992Z,8.10
2018-02-03T00:39:32.546Z,8.10
2018-02-03T00:42:00.811Z,7.90
2018-02-03T00:44:29.096Z,7.90
2018-02-03T00:46:56.624Z,7.90
2018-02-03T00:49:24.145Z,7.90
2018-02-03T00:51:51.672Z,7.80
2018-02-03T00:54:19.948Z,7.80
2018-02-03T00:56:48.256Z,7.80
2018-02-03T00:59:15.773Z,7.80
2018-02-03T01:01:44.069Z,7.80
2018-02-03T01:04:11.579Z,8.00
2018-02-03T01:06:39.105Z,7.80
2018-02-03T01:09:06.611Z,7.80
2018-02-03T01:11:34.179Z,7.80
2018-02-03T01:14:01.684Z,7.80
2018-02-03T01:16:29.232Z,7.90
2018-02-03T01:18:56.746Z,7.80
2018-02-03T01:21:24.246Z,7.90
2018-02-03T01:23:51.789Z,7.80
2018-02-03T01:26:20.076Z,7.80
2018-02-03T01:28:48.370Z,7.80
2018-02-03T01:31:15.888Z,7.80
2018-02-03T01:33:43.411Z,7.80
2018-02-03T01:36:10.919Z,7.80
2018-02-03T01:38:39.215Z,7.80
2018-02-03T01:41:07.497Z,7.80
2018-02-03T01:43:35.018Z,7.80
2018-02-03T01:46:02.535Z,7.80
2018-02-03T01:48:30.063Z,7.90
2018-02-03T01:50:58.339Z,7.90
2018-02-03T01:53:26.631Z,7.90
2018-02-03T01:55:54.155Z,7.90
2018-02-03T01:58:22.455Z,7.90
2018-02-03T02:00:50.730Z,7.90
2018-02-03T02:03:19.029Z,7.90
2018-02-03T02:05:46.543Z,7.90
2018-02-03T02:08:14.072Z,7.90
2018-02-03T02:10:41.584Z,7.90
2018-02-03T02:13:09.888Z,7.80
2018-02-03T02:15:37.395Z,7.80
2018-02-03T02:18:04.931Z,7.80
2018-02-03T02:20:32.438Z,7.80
2018-02-03T02:23:00.710Z,7.80
2018-02-03T02:25:28.232Z,7.80
2018-02-03T02:27:55.735Z,7.90
2018-02-03T02:30:24.023Z,7.80
2018-02-03T02:32:52.312Z,7.80
2018-02-03T02:35:19.834Z,7.80
2018-02-03T02:37:47.350Z,7.80
2018-02-03T02:40:14.878Z,7.80
2018-02-03T02:42:43.154Z,7.80
2018-02-03T02:45:11.450Z,7.80
2018-02-03T02:47:38.968Z,7.80
2018-02-03T02:50:06.483Z,7.80
2018-02-03T02:52:33.986Z,7.80
2018-02-03T02:55:01.520Z,7.80
2018-02-03T02:57:29.030Z,7.80
2018-02-03T02:59:57.330Z,7.80
2018-02-03T03:02:24.848Z,7.90
2018-02-03T03:04:52.371Z,7.70
2018-02-03T03:07:19.915Z,7.70
2018-02-03T03:09:47.414Z,7.70
2018-02-03T03:12:14.934Z,7.70
2018-02-03T03:14:42.443Z,7.70
2018-02-03T03:17:09.981Z,7.70
2018-02-03T03:19:37.488Z,7.70
2018-02-03T03:22:05.778Z,7.70
2018-02-03T03:24:33.279Z,7.60
2018-02-03T03:27:00.803Z,7.70
2018-02-03T03:29:28.321Z,7.60
2018-02-03T03:31:55.851Z,7.60
2018-02-03T03:34:23.363Z,7.60
2018-02-03T03:36:51.647Z,7.60
2018-02-03T03:39:19.923Z,7.60
2018-02-03T03:41:48.210Z,7.60
2018-02-03T03:44:15.716Z,7.60
2018-02-03T03:46:43.242Z,7.60
2018-02-03T03:49:10.750Z,7.60
2018-02-03T03:51:38.256Z,7.60
2018-02-03T03:54:05.795Z,7.60
2018-02-03T03:56:34.116Z,7.60
2018-02-03T03:59:01.639Z,7.50
2018-02-03T04:01:29.907Z,7.60
2018-02-03T04:03:57.458Z,7.60
2018-02-03T04:06:24.971Z,7.60
2018-02-03T04:08:52.498Z,7.70
2018-02-03T04:11:20.771Z,7.60
2018-02-03T04:13:49.058Z,7.60
2018-02-03T04:16:16.579Z,7.80
2018-02-03T04:18:44.109Z,7.60
2018-02-03T04:21:11.615Z,7.60
2018-02-03T04:23:39.907Z,7.60
2018-02-03T04:26:08.178Z,7.60
2018-02-03T04:28:36.471Z,7.60
2018-02-03T04:31:03.992Z,7.60
2018-02-03T04:33:31.523Z,7.60
2018-02-03T04:35:59.039Z,7.50
2018-02-03T04:38:27.324Z,7.50
2018-02-03T04:40:54.847Z,7.50
2018-02-03T04:43:22.364Z,7.50
2018-02-03T04:45:49.892Z,7.50
2018-02-03T04:48:18.151Z,7.50
2018-02-03T04:50:45.676Z,7.70
2018-02-03T04:53:13.178Z,7.60
2018-02-03T04:55:40.712Z,7.50
2018-02-03T04:58:08.214Z,7.50
2018-02-03T05:00:36.503Z,7.50
2018-02-03T05:03:04.007Z,7.60
2018-02-03T05:05:31.527Z,7.50
2018-02-03T05:07:59.031Z,7.50
2018-02-03T05:10:26.543Z,7.40
2018-02-03T05:12:54.095Z,7.40
2018-02-03T05:15:22.374Z,7.40
2018-02-03T05:17:49.866Z,7.50
2018-02-03T05:20:17.383Z,7.40
2018-02-03T05:22:45.664Z,7.30
2018-02-03T05:25:13.217Z,7.30
2018-02-03T05:27:41.487Z,7.30
2018-02-03T05:30:09.755Z,7.30
2018-02-03T05:32:37.274Z,7.30
2018-02-03T05:35:04.771Z,7.30
2018-02-03T05:37:32.293Z,7.30
2018-02-03T05:39:59.798Z,7.30
2018-02-03T05:42:27.311Z,7.30
2018-02-03T05:44:57.436Z,7.40
2018-02-03T05:47:25.004Z,7.40
2018-02-03T05:49:52.479Z,7.30
2018-02-03T05:52:20.005Z,7.30
2018-02-03T05:54:47.527Z,7.30
2018-02-03T05:57:15.824Z,7.40
2018-02-03T05:59:43.337Z,7.30
2018-02-03T06:02:10.868Z,7.40
2018-02-03T06:04:38.373Z,7.40
2018-02-03T06:07:05.924Z,7.40
2018-02-03T06:09:33.423Z,7.40
2018-02-03T06:12:00.931Z,7.40
2018-02-03T06:14:28.459Z,7.40
2018-02-03T06:16:55.971Z,7.40
2018-02-03T06:19:23.490Z,7.30
2018-02-03T06:21:50.993Z,7.40
2018-02-03T06:24:18.507Z,7.30
2018-02-03T06:26:46.013Z,7.30
2018-02-03T06:29:14.319Z,7.30
2018-02-03T06:31:41.828Z,7.50
2018-02-03T06:34:09.355Z,7.30
2018-02-03T06:36:36.875Z,7.30
2018-02-03T06:39:05.171Z,7.30
2018-02-03T06:41:33.439Z,7.30
2018-02-03T06:44:01.741Z,7.30
2018-02-03T06:46:29.287Z,7.30
2018-02-03T06:48:56.813Z,7.30
2018-02-03T06:51:24.311Z,7.30
2018-02-03T06:53:51.832Z,7.30
2018-02-03T06:56:19.339Z,7.30
2018-02-03T06:58:46.858Z,7.30
2018-02-03T07:01:14.394Z,7.30
2018-02-03T07:03:41.943Z,7.30
2018-02-03T07:06:09.458Z,7.30
2018-02-03T07:08:37.012Z,7.30
2018-02-03T07:11:05.271Z,7.20
2018-02-03T07:13:32.791Z,7.30
2018-02-03T07:16:00.316Z,7.20
2018-02-03T07:18:28.592Z,7.10
2018-02-03T07:20:56.883Z,7.20
2018-02-03T07:23:24.393Z,7.10
2018-02-03T07:25:51.963Z,7.10
2018-02-03T07:28:19.489Z,7.20
2018-02-03T07:30:47.013Z,7.20
2018-02-03T07:33:15.297Z,7.20
2018-02-03T07:35:42.836Z,7.30
2018-02-03T07:38:11.124Z,7.20
2018-02-03T07:40:39.415Z,7.20
2018-02-03T07:43:06.955Z,7.20
2018-02-03T07:45:35.251Z,7.30
2018-02-03T07:48:02.801Z,7.20
2018-02-03T07:50:31.128Z,7.30
2018-02-03T07:52:58.643Z,7.30
2018-02-03T07:55:26.931Z,7.30
2018-02-03T07:57:55.263Z,7.20
2018-02-03T08:00:22.789Z,7.20
2018-02-03T08:02:50.352Z,7.30
2018-02-03T08:05:17.863Z,7.30
2018-02-03T08:07:46.224Z,7.30
2018-02-03T08:10:14.535Z,7.40
2018-02-03T08:12:42.848Z,7.40
2018-02-03T08:15:10.367Z,7.40
2018-02-03T08:17:37.912Z,7.50
2018-02-03T08:20:07.264Z,7.50
2018-02-03T08:22:34.809Z,7.50
2018-02-03T08:25:02.343Z,7.60
2018-02-03T08:27:30.655Z,7.50
2018-02-03T08:29:58.183Z,7.50
2018-02-03T08:32:26.487Z,7.50
2018-02-03T08:34:54.087Z,7.40
2018-02-03T08:37:21.725Z,7.50
2018-02-03T08:39:49.249Z,7.50
2018-02-03T08:42:17.583Z,7.50
2018-02-03T08:44:45.174Z,7.50
2018-02-03T08:47:12.676Z,7.50
2018-02-03T08:49:41.027Z,7.60
2018-02-03T08:52:08.536Z,7.60
2018-02-03T08:54:36.093Z,7.60
2018-02-03T08:57:03.654Z,7.60
2018-02-03T08:59:31.216Z,7.50
2018-02-03T09:01:58.723Z,7.50
2018-02-03T09:04:26.266Z,7.50
2018-02-03T09:06:53.779Z,7.60
2018-02-03T09:09:22.079Z,7.70
2018-02-03T09:12:01.404Z,7.70
2018-02-03T09:14:28.933Z,7.80
2018-02-03T09:16:56.458Z,7.80
2018-02-03T09:19:23.983Z,7.80
2018-02-03T09:21:52.269Z,7.80
2018-02-03T09:24:19.807Z,7.80
2018-02-03T09:26:48.119Z,7.80
2018-02-03T09:29:15.663Z,7.80
2018-02-03T09:31:43.210Z,7.80
2018-02-03T09:34:11.491Z,7.80
2018-02-03T09:36:39.029Z,7.80
2018-02-03T09:39:06.595Z,7.70
2018-02-03T09:41:34.129Z,7.80
2018-02-03T09:44:01.645Z,7.70
2018-02-03T09:46:29.167Z,7.70
2018-02-03T09:48:56.677Z,7.70
2018-02-03T09:51:24.227Z,7.70
2018-02-03T09:53:51.759Z,7.70
2018-02-03T09:56:20.098Z,7.70
2018-02-03T09:58:47.591Z,7.70
2018-02-03T10:01:15.115Z,7.70
2018-02-03T10:03:42.623Z,7.70
2018-02-03T10:06:10.212Z,7.70
2018-02-03T10:08:37.752Z,7.60
2018-02-03T10:13:39.211Z,7.70
2018-02-03T10:16:07.493Z,7.60
2018-02-03T10:18:35.788Z,7.60
2018-02-03T10:21:03.334Z,7.60
2018-02-03T10:23:31.675Z,7.70
2018-02-03T10:25:59.187Z,7.90
2018-02-03T10:28:26.738Z,7.60
2018-02-03T10:30:55.012Z,7.60
2018-02-03T10:33:23.310Z,7.50
2018-02-03T10:35:50.830Z,7.50
2018-02-03T10:38:18.363Z,7.50
2018-02-03T10:40:45.886Z,7.60
2018-02-03T10:43:13.429Z,7.60
2018-02-03T10:45:40.970Z,7.60
2018-02-03T10:48:09.291Z,7.60
2018-02-03T10:50:36.803Z,7.80
2018-02-03T10:53:05.095Z,7.60
2018-02-03T10:55:32.620Z,7.50
2018-02-03T10:58:00.171Z,7.50
2018-02-03T11:00:33.335Z,7.50
2018-02-03T11:03:00.872Z,7.50
2018-02-03T11:05:29.167Z,7.40
2018-02-03T11:07:57.479Z,7.30
2018-02-03T11:10:24.991Z,7.40
2018-02-03T11:12:53.286Z,7.40
2018-02-03T11:15:20.872Z,7.60
2018-02-03T11:17:48.374Z,7.40
2018-02-03T11:20:15.943Z,7.40
2018-02-03T11:22:43.462Z,7.30
2018-02-03T11:25:10.984Z,7.30
2018-02-03T11:27:38.574Z,7.30
2018-02-03T11:30:06.113Z,7.40
2018-02-03T11:32:33.644Z,7.40
2018-02-03T11:35:01.188Z,7.50
2018-02-03T11:37:28.699Z,7.60
2018-02-03T11:39:56.240Z,7.60
2018-02-03T11:42:24.522Z,7.60
2018-02-03T11:44:52.836Z,7.60
2018-02-03T11:47:20.361Z,7.50
2018-02-03T11:49:48.642Z,7.50
2018-02-03T11:52:16.951Z,7.50
2018-02-03T11:54:44.468Z,7.50
2018-02-03T11:57:12.774Z,7.50
2018-02-03T11:59:40.291Z,7.50
2018-02-03T12:02:07.846Z,7.50
2018-02-03T12:04:35.412Z,7.50
2018-02-03T12:07:02.977Z,7.50
2018-02-03T12:09:31.269Z,7.50
2018-02-03T12:11:59.594Z,7.50
2018-02-03T12:14:27.115Z,7.50
2018-02-03T12:16:54.656Z,7.50
2018-02-03T12:19:22.939Z,7.70
2018-02-03T12:21:51.261Z,7.70
2018-02-03T12:24:18.805Z,7.70
2018-02-03T12:26:46.322Z,7.80
2018-02-03T12:29:13.876Z,7.80
2018-02-03T12:31:42.190Z,7.80
2018-02-03T12:34:10.486Z,7.80
2018-02-03T12:36:38.003Z,7.80
2018-02-03T12:39:05.556Z,7.90
2018-02-03T12:41:33.102Z,7.80
2018-02-03T12:44:00.638Z,7.80
2018-02-03T12:46:28.149Z,7.80
2018-02-03T12:48:56.463Z,7.70
2018-02-03T12:51:23.990Z,8.00
2018-02-03T12:53:52.296Z,7.80
2018-02-03T12:56:19.806Z,7.70
2018-02-03T12:58:47.328Z,7.80
2018-02-03T13:01:14.887Z,7.80
2018-02-03T13:03:42.424Z,7.90
2018-02-03T13:06:10.711Z,8.00
2018-02-03T13:08:38.239Z,8.10
2018-02-03T13:11:06.543Z,7.90
2018-02-03T13:13:34.051Z,7.90
2018-02-03T13:16:01.587Z,7.90
2018-02-03T13:18:29.146Z,7.80
2018-02-03T13:20:56.718Z,7.70
2018-02-03T13:23:24.249Z,7.60
2018-02-03T13:25:51.845Z,7.60
2018-02-03T13:28:19.371Z,7.60
2018-02-03T13:30:46.899Z,7.60
2018-02-03T13:33:14.455Z,7.60
2018-02-03T13:35:41.972Z,7.60
2018-02-03T13:38:09.486Z,7.60
2018-02-03T13:40:37.013Z,7.70
2018-02-03T13:43:04.530Z,7.60
2018-02-03T13:45:32.900Z,7.60
2018-02-03T13:48:00.411Z,7.60
2018-02-03T13:50:27.950Z,7.60
2018-02-03T13:52:55.454Z,7.60
2018-02-03T13:55:23.031Z,7.60
2018-02-03T13:57:51.323Z,7.50
2018-02-03T14:00:19.779Z,7.50
2018-02-03T14:02:47.315Z,7.50
2018-02-03T14:05:14.818Z,7.50
2018-02-03T14:07:43.143Z,7.40
2018-02-03T14:10:10.647Z,7.40
2018-02-03T14:12:38.167Z,7.40
2018-02-03T14:15:05.701Z,7.50
2018-02-03T14:17:33.281Z,7.50
2018-02-03T14:20:01.603Z,7.40
2018-02-03T14:22:29.168Z,7.40
2018-02-03T14:25:02.223Z,7.30
2018-02-03T14:27:29.754Z,7.40
2018-02-03T14:29:58.082Z,7.50
2018-02-03T14:32:25.636Z,7.40
2018-02-03T14:34:53.233Z,7.40
2018-02-03T14:37:21.572Z,7.40
2018-02-03T14:39:49.102Z,7.30
2018-02-03T14:42:17.412Z,7.20
2018-02-03T14:44:44.979Z,7.40
2018-02-03T14:47:12.519Z,7.20
2018-02-03T14:49:40.055Z,7.20
2018-02-03T14:52:08.359Z,7.10
2018-02-03T14:54:35.886Z,7.00
2018-02-03T14:57:03.391Z,7.00
2018-02-03T14:59:30.974Z,6.90
2018-02-03T15:01:58.490Z,6.90
2018-02-03T15:04:26.051Z,6.80
2018-02-03T15:06:53.644Z,6.90
2018-02-03T15:09:21.195Z,6.80
2018-02-03T15:11:48.723Z,6.70
2018-02-03T15:14:17.037Z,6.60
2018-02-03T15:16:44.583Z,6.70
2018-02-03T15:19:12.106Z,6.70
2018-02-03T15:21:39.622Z,6.60
2018-02-03T15:24:07.135Z,6.60
2018-02-03T15:26:35.427Z,6.50
2018-02-03T15:29:03.694Z,6.50
2018-02-03T15:31:31.992Z,6.40
2018-02-03T15:33:59.544Z,6.50
2018-02-03T15:36:27.079Z,6.40
2018-02-03T15:38:54.625Z,6.40
2018-02-03T15:41:22.145Z,6.40
2018-02-03T15:43:49.681Z,6.30
2018-02-03T15:46:17.972Z,6.30
2018-02-03T15:48:45.484Z,6.50
2018-02-03T15:51:13.010Z,6.30
2018-02-03T15:53:40.511Z,6.20
2018-02-03T15:56:08.020Z,6.30
2018-02-03T15:58:35.567Z,6.30
2018-02-03T16:01:03.104Z,6.30
2018-02-03T16:03:31.399Z,6.20
2018-02-03T16:05:59.671Z,6.20
2018-02-03T16:08:27.951Z,6.20
2018-02-03T16:10:56.219Z,6.30
2018-02-03T16:13:24.499Z,6.30
2018-02-03T16:15:52.824Z,6.30
2018-02-03T16:18:20.346Z,6.30
2018-02-03T16:20:47.853Z,6.30
2018-02-03T16:23:15.377Z,6.30
2018-02-03T16:25:42.884Z,6.30
2018-02-03T16:28:10.400Z,6.20
2018-02-03T16:30:37.915Z,6.20
2018-02-03T16:33:05.439Z,6.20
2018-02-03T16:35:33.087Z,6.20
2018-02-03T16:38:00.587Z,6.20
2018-02-03T16:40:28.130Z,6.20
2018-02-03T16:42:55.635Z,6.20
2018-02-03T16:45:23.919Z,6.20
2018-02-03T16:47:52.192Z,6.30
2018-02-03T16:50:20.495Z,6.30
2018-02-03T16:52:48.017Z,6.30
2018-02-03T16:55:16.307Z,6.20
2018-02-03T16:57:44.583Z,6.20
2018-02-03T17:00:12.864Z,6.30
2018-02-03T17:02:41.134Z,6.20
2018-02-03T17:05:09.414Z,6.20
2018-02-03T17:07:37.691Z,6.10
2018-02-03T17:10:05.979Z,6.10
2018-02-03T17:12:34.266Z,6.10
2018-02-03T17:15:01.817Z,6.00
2018-02-03T17:17:30.092Z,6.00
2018-02-03T17:19:58.395Z,6.00
2018-02-03T17:22:25.909Z,5.90
2018-02-03T17:24:53.444Z,6.00
2018-02-03T17:27:20.950Z,6.00
2018-02-03T17:29:49.264Z,5.90
2018-02-03T17:32:16.794Z,6.10
2018-02-03T17:34:44.299Z,5.90
2018-02-03T17:37:17.508Z,5.90
2018-02-03T17:39:45.011Z,5.90
2018-02-03T17:42:12.538Z,6.00
2018-02-03T17:44:40.039Z,6.00
2018-02-03T17:47:07.565Z,6.00
2018-02-03T17:49:35.868Z,6.00
2018-02-03T17:52:03.442Z,6.00
2018-02-03T17:54:30.968Z,6.00
2018-02-03T17:57:04.812Z,6.10
2018-02-03T17:59:32.328Z,6.10
2018-02-03T18:02:00.622Z,6.20
2018-02-03T18:04:28.898Z,6.20
2018-02-03T18:07:02.852Z,6.20
2018-02-03T18:09:30.397Z,6.20
2018-02-03T18:11:57.914Z,6.20
2018-02-03T18:14:25.429Z,6.20
2018-02-03T18:16:52.954Z,6.20
2018-02-03T18:19:21.234Z,6.10
2018-02-03T18:21:48.759Z,6.10
2018-02-03T18:24:16.262Z,6.10
2018-02-03T18:26:43.779Z,6.10
2018-02-03T18:29:11.290Z,6.10
2018-02-03T18:31:38.821Z,6.10
2018-02-03T18:34:06.336Z,6.10
2018-02-03T18:36:33.873Z,6.10
2018-02-03T18:39:01.379Z,6.10
2018-02-03T18:41:28.903Z,6.10
2018-02-03T18:43:56.412Z,6.10
2018-02-03T18:46:24.678Z,6.10
2018-02-03T18:48:52.198Z,6.10
2018-02-03T18:51:19.704Z,6.10
2018-02-03T18:53:48.015Z,6.10
2018-02-03T18:56:15.531Z,6.30
2018-02-03T18:58:43.057Z,6.00
2018-02-03T19:01:10.563Z,6.00
2018-02-03T19:03:38.862Z,6.00
2018-02-03T19:06:06.383Z,6.30
2018-02-03T19:08:34.705Z,6.00
2018-02-03T19:11:02.229Z,6.20
2018-02-03T19:13:29.747Z,6.10
2018-02-03T19:15:57.261Z,6.10
2018-02-03T19:18:25.548Z,6.10
2018-02-03T19:20:53.825Z,6.10
2018-02-03T19:23:22.103Z,6.10
2018-02-03T19:25:51.231Z,6.20
2018-02-03T19:28:18.785Z,6.40
2018-02-03T19:30:46.314Z,6.20
2018-02-03T19:33:13.839Z,6.20
2018-02-03T19:35:41.387Z,6.20
2018-02-03T19:38:08.895Z,6.30
2018-02-03T19:40:37.173Z,6.30
2018-02-03T19:43:05.456Z,6.30
2018-02-03T19:45:33.749Z,6.30
2018-02-03T19:48:01.266Z,6.30
2018-02-03T19:50:28.791Z,6.30
2018-02-03T19:52:56.291Z,6.20
2018-02-03T19:55:23.839Z,6.20
2018-02-03T19:57:51.359Z,6.20
2018-02-03T20:00:18.886Z,6.20
2018-02-03T20:02:47.162Z,6.20
2018-02-03T20:05:15.476Z,6.20
2018-02-03T20:07:42.980Z,6.20
2018-02-03T20:10:10.501Z,6.20
2018-02-03T20:12:38.027Z,6.20
2018-02-03T20:15:05.551Z,6.30
2018-02-03T20:17:33.075Z,6.30
2018-02-03T20:20:00.583Z,6.30
2018-02-03T20:22:28.106Z,6.30
2018-02-03T20:24:55.624Z,6.30
2018-02-03T20:27:23.920Z,6.30
2018-02-03T20:29:51.436Z,6.30
2018-02-03T20:32:18.975Z,6.30
2018-02-03T20:34:46.479Z,6.30
2018-02-03T20:37:14.777Z,6.30
2018-02-03T20:39:42.292Z,6.50
2018-02-03T20:42:09.838Z,6.30
2018-02-03T20:44:38.107Z,6.30
2018-02-03T20:47:05.619Z,6.40
2018-02-03T20:49:33.907Z,6.40
2018-02-03T20:52:01.417Z,6.30
2018-02-03T20:54:28.941Z,6.40
2018-02-03T20:56:56.443Z,6.40
2018-02-03T20:59:23.963Z,6.40
2018-02-03T21:01:51.481Z,6.40
2018-02-03T21:04:19.781Z,6.40
2018-02-03T21:06:47.294Z,6.40
2018-02-03T21:09:14.837Z,6.40
2018-02-03T21:11:42.348Z,6.40
2018-02-03T21:14:10.635Z,6.40
2018-02-03T21:16:38.906Z,6.40
2018-02-03T21:19:07.206Z,6.40
2018-02-03T21:21:34.755Z,6.70
2018-02-03T21:24:02.306Z,6.50
2018-02-03T21:26:30.579Z,6.40
2018-02-03T21:28:58.859Z,6.40
2018-02-03T21:31:27.167Z,6.40
2018-02-03T21:33:54.687Z,6.50
2018-02-03T21:36:22.980Z,6.50
2018-02-03T21:38:51.256Z,6.50
2018-02-03T21:41:19.545Z,6.50
2018-02-03T21:43:47.060Z,6.60
2018-02-03T21:46:14.578Z,6.50
2018-02-03T21:48:42.084Z,6.50
2018-02-03T21:51:09.607Z,6.50
2018-02-03T21:53:37.115Z,6.50
2018-02-03T21:56:05.413Z,6.50
2018-02-03T21:58:32.924Z,6.50
2018-02-03T22:01:00.453Z,6.50
2018-02-03T22:03:27.970Z,6.50
2018-02-03T22:05:56.291Z,6.60
2018-02-03T22:08:23.805Z,6.50
2018-02-03T22:10:51.344Z,6.60
2018-02-03T22:13:18.842Z,6.60
2018-02-03T22:15:47.153Z,6.60
2018-02-03T22:18:14.675Z,6.40
2018-02-03T22:20:42.947Z,6.60
2018-02-03T22:23:11.289Z,6.60
2018-02-03T22:25:38.787Z,6.60
2018-02-03T22:28:07.107Z,6.60
2018-02-03T22:30:34.620Z,6.40
2018-02-03T22:33:02.907Z,6.60
2018-02-03T22:35:31.171Z,6.50
2018-02-03T22:37:58.691Z,6.50
2018-02-03T22:40:26.203Z,6.50
2018-02-03T22:42:54.483Z,6.50
2018-02-03T22:45:22.766Z,6.50
2018-02-03T22:47:51.051Z,6.60
2018-02-03T22:50:18.562Z,6.80
2018-02-03T22:52:46.086Z,6.50
2018-02-03T22:55:13.606Z,6.50
2018-02-03T22:57:41.920Z,6.50
2018-02-03T23:00:09.443Z,6.40
2018-02-03T23:02:43.426Z,6.50
2018-02-03T23:05:10.982Z,6.50
2018-02-03T23:07:38.511Z,6.60
2018-02-03T23:10:06.795Z,6.50
2018-02-03T23:12:34.317Z,6.70
2018-02-03T23:15:02.607Z,6.60
2018-02-03T23:17:30.889Z,6.60
2018-02-03T23:19:58.429Z,6.50
2018-02-03T23:22:26.708Z,6.60
2018-02-03T23:24:54.995Z,6.60
2018-02-03T23:27:23.276Z,6.60
2018-02-03T23:29:51.563Z,6.50
2018-02-03T23:32:19.069Z,6.80
2018-02-03T23:34:46.604Z,6.60
2018-02-03T23:37:14.106Z,6.60
2018-02-03T23:39:41.631Z,6.60
2018-02-03T23:42:09.140Z,6.60
2018-02-03T23:44:37.427Z,6.60
2018-02-03T23:47:05.695Z,6.60
2018-02-03T23:49:33.984Z,6.60
2018-02-03T23:52:02.264Z,6.50
2018-02-03T23:54:30.588Z,6.50
2018-02-03T23:56:58.098Z,6.60
2018-02-03T23:59:26.373Z,6.60
